createdAt,value
2018-09-24T00:00:17.556Z,11.69
2018-09-24T00:01:14.951Z,11.69
2018-09-24T00:02:14.886Z,11.69
2018-09-24T00:03:14.743Z,11.69
2018-09-24T00:04:14.929Z,11.69
2018-09-24T00:05:14.964Z,11.63
2018-09-24T00:06:15.115Z,11.63
2018-09-24T00:07:14.895Z,11.56
2018-09-24T00:08:14.922Z,11.63
2018-09-24T00:09:15.433Z,11.63
2018-09-24T00:10:14.909Z,11.56
2018-09-24T00:11:14.763Z,11.63
2018-09-24T00:12:14.923Z,11.63
2018-09-24T00:13:15.186Z,11.63
2018-09-24T00:14:15.028Z,11.63
2018-09-24T00:15:14.746Z,11.75
2018-09-24T00:16:14.890Z,11.69
2018-09-24T00:17:14.908Z,11.75
2018-09-24T00:18:14.892Z,11.75
2018-09-24T00:19:14.950Z,11.69
2018-09-24T00:20:14.891Z,11.75
2018-09-24T00:21:14.845Z,11.81
2018-09-24T00:22:14.925Z,11.81
2018-09-24T00:23:14.725Z,11.81
2018-09-24T00:24:14.973Z,11.81
2018-09-24T00:25:14.903Z,11.81
2018-09-24T00:26:15.027Z,11.81
2018-09-24T00:27:14.887Z,11.81
2018-09-24T00:28:14.879Z,11.81
2018-09-24T00:29:14.930Z,11.81
2018-09-24T00:30:15.095Z,11.75
2018-09-24T00:31:14.911Z,11.75
2018-09-24T00:32:14.832Z,11.75
2018-09-24T00:33:14.843Z,11.75
2018-09-24T00:34:14.691Z,11.81
2018-09-24T00:35:14.712Z,11.81
2018-09-24T00:36:14.686Z,11.75
2018-09-24T00:37:14.690Z,11.75
2018-09-24T00:38:14.687Z,11.75
2018-09-24T00:39:14.853Z,11.69
2018-09-24T00:40:14.726Z,11.75
2018-09-24T00:41:14.725Z,11.75
2018-09-24T00:42:14.880Z,11.75
2018-09-24T00:43:15.307Z,11.75
2018-09-24T00:44:14.964Z,11.75
2018-09-24T00:45:14.869Z,11.75
2018-09-24T00:46:14.880Z,11.75
2018-09-24T00:47:14.814Z,11.81
2018-09-24T00:48:14.684Z,11.81
2018-09-24T00:49:14.928Z,11.81
2018-09-24T00:50:14.730Z,11.81
2018-09-24T00:51:14.839Z,11.81
2018-09-24T00:52:14.869Z,11.75
2018-09-24T00:53:14.988Z,11.75
2018-09-24T00:54:14.825Z,11.75
2018-09-24T00:55:15.048Z,11.69
2018-09-24T00:56:14.877Z,11.75
2018-09-24T00:57:14.881Z,11.75
2018-09-24T00:58:14.652Z,11.69
2018-09-24T00:59:14.651Z,11.69
2018-09-24T01:00:14.692Z,11.75
2018-09-24T01:01:15.424Z,11.75
2018-09-24T01:02:14.907Z,11.75
2018-09-24T01:03:14.675Z,11.81
2018-09-24T01:04:14.859Z,11.81
2018-09-24T01:05:14.903Z,11.81
2018-09-24T01:06:14.886Z,11.81
2018-09-24T01:07:14.907Z,11.81
2018-09-24T01:08:14.746Z,11.81
2018-09-24T01:09:14.933Z,11.81
2018-09-24T01:10:14.826Z,11.81
2018-09-24T01:11:14.720Z,11.81
2018-09-24T01:12:14.651Z,11.81
2018-09-24T01:13:14.836Z,11.75
2018-09-24T01:14:14.652Z,11.75
2018-09-24T01:15:14.565Z,11.75
2018-09-24T01:16:14.805Z,11.75
2018-09-24T01:17:14.884Z,11.75
2018-09-24T01:18:14.817Z,11.75
2018-09-24T01:19:14.754Z,11.75
2018-09-24T01:20:14.989Z,11.75
2018-09-24T01:21:14.705Z,11.81
2018-09-24T01:22:15.115Z,11.69
2018-09-24T01:23:15.358Z,11.75
2018-09-24T01:24:14.678Z,11.75
2018-09-24T01:25:14.661Z,11.75
2018-09-24T01:26:15.200Z,11.75
2018-09-24T01:27:14.845Z,11.75
2018-09-24T01:28:14.840Z,11.81
2018-09-24T01:29:14.787Z,11.81
2018-09-24T01:30:14.791Z,11.75
2018-09-24T01:31:14.836Z,11.75
2018-09-24T01:32:14.776Z,11.69
2018-09-24T01:33:14.948Z,11.75
2018-09-24T01:34:14.641Z,11.69
2018-09-24T01:35:14.726Z,11.69
2018-09-24T01:36:14.843Z,11.69
2018-09-24T01:37:14.961Z,11.69
2018-09-24T01:38:14.935Z,11.75
2018-09-24T01:39:14.792Z,11.69
2018-09-24T01:40:14.905Z,11.75
2018-09-24T01:41:14.906Z,11.69
2018-09-24T01:42:14.858Z,11.69
2018-09-24T01:43:14.758Z,11.69
2018-09-24T01:44:14.615Z,11.69
2018-09-24T01:45:14.703Z,11.69
2018-09-24T01:46:14.786Z,11.69
2018-09-24T01:47:14.590Z,11.75
2018-09-24T01:48:14.809Z,11.69
2018-09-24T01:49:14.828Z,11.75
2018-09-24T01:50:14.566Z,11.75
2018-09-24T01:51:15.143Z,11.75
2018-09-24T01:52:14.753Z,11.69
2018-09-24T01:53:14.619Z,11.75
2018-09-24T01:54:14.766Z,11.69
2018-09-24T01:55:14.806Z,11.69
2018-09-24T01:56:14.752Z,11.63
2018-09-24T01:57:14.748Z,11.56
2018-09-24T01:58:14.712Z,11.5
2018-09-24T01:59:14.606Z,11.5
2018-09-24T02:00:14.644Z,11.5
2018-09-24T02:01:14.650Z,11.5
2018-09-24T02:02:14.567Z,11.44
2018-09-24T02:03:14.774Z,11.5
2018-09-24T02:04:14.754Z,11.5
2018-09-24T02:05:14.824Z,11.5
2018-09-24T02:06:14.875Z,11.44
2018-09-24T02:07:14.653Z,11.5
2018-09-24T02:08:14.669Z,11.44
2018-09-24T02:09:14.643Z,11.44
2018-09-24T02:10:14.618Z,11.44
2018-09-24T02:11:14.796Z,11.44
2018-09-24T02:12:14.875Z,11.5
2018-09-24T02:13:14.775Z,11.5
2018-09-24T02:14:14.746Z,11.5
2018-09-24T02:15:14.927Z,11.5
2018-09-24T02:16:14.821Z,11.44
2018-09-24T02:17:14.822Z,11.44
2018-09-24T02:18:14.904Z,11.44
2018-09-24T02:19:14.721Z,11.44
2018-09-24T02:20:14.811Z,11.44
2018-09-24T02:21:14.796Z,11.44
2018-09-24T02:22:14.550Z,11.44
2018-09-24T02:23:14.579Z,11.5
2018-09-24T02:24:14.677Z,11.38
2018-09-24T02:25:14.658Z,11.44
2018-09-24T02:26:14.824Z,11.38
2018-09-24T02:27:14.785Z,11.38
2018-09-24T02:28:14.726Z,11.44
2018-09-24T02:29:15.018Z,11.44
2018-09-24T02:30:14.825Z,11.44
2018-09-24T02:31:14.734Z,11.44
2018-09-24T02:32:14.691Z,11.5
2018-09-24T02:33:14.749Z,11.5
2018-09-24T02:34:14.749Z,11.5
2018-09-24T02:35:14.681Z,11.5
2018-09-24T02:36:14.773Z,11.44
2018-09-24T02:37:14.600Z,11.5
2018-09-24T02:38:14.688Z,11.44
2018-09-24T02:39:14.558Z,11.44
2018-09-24T02:40:14.685Z,11.44
2018-09-24T02:41:14.763Z,11.44
2018-09-24T02:42:14.874Z,11.38
2018-09-24T02:43:15.207Z,11.38
2018-09-24T02:44:14.589Z,11.38
2018-09-24T02:45:14.721Z,11.31
2018-09-24T02:46:14.904Z,11.38
2018-09-24T02:47:14.657Z,11.31
2018-09-24T02:48:14.671Z,11.31
2018-09-24T02:49:14.652Z,11.31
2018-09-24T02:50:14.564Z,11.38
2018-09-24T02:51:14.693Z,11.31
2018-09-24T02:52:14.775Z,11.25
2018-09-24T02:53:14.540Z,11.31
2018-09-24T02:54:14.623Z,11.25
2018-09-24T02:55:14.693Z,11.25
2018-09-24T02:56:14.734Z,11.25
2018-09-24T02:57:14.705Z,11.25
2018-09-24T02:58:14.674Z,11.25
2018-09-24T02:59:14.524Z,11.25
2018-09-24T03:00:14.555Z,11.19
2018-09-24T03:01:15.236Z,11.19
2018-09-24T03:02:14.805Z,11.19
2018-09-24T03:03:14.560Z,11.19
2018-09-24T03:04:14.721Z,11.19
2018-09-24T03:05:14.706Z,11.12
2018-09-24T03:06:14.694Z,11.12
2018-09-24T03:07:14.704Z,11.12
2018-09-24T03:08:14.681Z,11.12
2018-09-24T03:09:14.796Z,11.12
2018-09-24T03:10:14.769Z,11.12
2018-09-24T03:11:14.572Z,11.19
2018-09-24T03:12:14.699Z,11.12
2018-09-24T03:13:14.489Z,11.12
2018-09-24T03:14:14.491Z,11.12
2018-09-24T03:15:14.640Z,11.06
2018-09-24T03:16:14.581Z,11.06
2018-09-24T03:17:14.601Z,11
2018-09-24T03:18:14.628Z,11.06
2018-09-24T03:19:14.661Z,11
2018-09-24T03:20:14.698Z,11
2018-09-24T03:21:14.871Z,11
2018-09-24T03:22:14.476Z,11
2018-09-24T03:23:14.615Z,11
2018-09-24T03:24:14.519Z,11
2018-09-24T03:25:14.588Z,11
2018-09-24T03:26:15.427Z,11
2018-09-24T03:27:14.467Z,11
2018-09-24T03:28:14.632Z,11
2018-09-24T03:29:14.492Z,11
2018-09-24T03:30:14.522Z,11.06
2018-09-24T03:31:14.480Z,11.06
2018-09-24T03:32:14.612Z,11.06
2018-09-24T03:33:14.611Z,11.06
2018-09-24T03:34:14.484Z,11.06
2018-09-24T03:35:14.452Z,11
2018-09-24T03:36:14.659Z,11
2018-09-24T03:37:14.641Z,10.94
2018-09-24T03:38:14.655Z,10.94
2018-09-24T03:39:14.652Z,10.88
2018-09-24T03:40:14.969Z,10.94
2018-09-24T03:41:14.679Z,10.88
2018-09-24T03:42:14.679Z,10.94
2018-09-24T03:43:14.525Z,10.94
2018-09-24T03:44:14.692Z,10.88
2018-09-24T03:45:14.568Z,10.94
2018-09-24T03:46:14.452Z,10.94
2018-09-24T03:47:14.520Z,11
2018-09-24T03:48:14.570Z,10.94
2018-09-24T03:49:14.618Z,10.94
2018-09-24T03:50:14.772Z,10.94
2018-09-24T03:51:14.401Z,10.94
2018-09-24T03:52:14.682Z,10.94
2018-09-24T03:53:14.597Z,10.88
2018-09-24T03:54:14.668Z,10.94
2018-09-24T03:55:14.612Z,10.94
2018-09-24T03:56:14.641Z,10.94
2018-09-24T03:57:14.688Z,10.94
2018-09-24T03:58:14.797Z,10.94
2018-09-24T03:59:14.730Z,10.94
2018-09-24T04:00:14.632Z,10.94
2018-09-24T04:01:14.509Z,11
2018-09-24T04:02:14.589Z,10.94
2018-09-24T04:03:14.491Z,11
2018-09-24T04:04:14.689Z,11
2018-09-24T04:05:14.600Z,11
2018-09-24T04:06:14.589Z,11
2018-09-24T04:07:14.503Z,11
2018-09-24T04:08:14.743Z,11
2018-09-24T04:09:14.739Z,10.94
2018-09-24T04:10:15.489Z,10.94
2018-09-24T04:11:14.755Z,10.88
2018-09-24T04:12:14.596Z,10.88
2018-09-24T04:13:14.418Z,10.88
2018-09-24T04:14:14.631Z,10.88
2018-09-24T04:15:14.576Z,10.81
2018-09-24T04:16:14.761Z,10.75
2018-09-24T04:17:14.578Z,10.75
2018-09-24T04:18:14.513Z,10.75
2018-09-24T04:19:14.591Z,10.75
2018-09-24T04:20:14.788Z,10.75
2018-09-24T04:21:14.554Z,10.75
2018-09-24T04:22:14.374Z,10.75
2018-09-24T04:23:14.454Z,10.75
2018-09-24T04:24:15.013Z,10.75
2018-09-24T04:25:14.725Z,10.75
2018-09-24T04:26:15.332Z,10.69
2018-09-24T04:27:14.606Z,10.69
2018-09-24T04:28:14.650Z,10.69
2018-09-24T04:29:14.582Z,10.69
2018-09-24T04:30:14.623Z,10.69
2018-09-24T04:31:14.422Z,10.63
2018-09-24T04:32:14.549Z,10.63
2018-09-24T04:33:14.481Z,10.63
2018-09-24T04:34:14.481Z,10.63
2018-09-24T04:35:14.375Z,10.63
2018-09-24T04:36:14.522Z,10.56
2018-09-24T04:37:14.662Z,10.63
2018-09-24T04:38:14.541Z,10.56
2018-09-24T04:39:14.581Z,10.56
2018-09-24T04:40:14.401Z,10.56
2018-09-24T04:41:14.506Z,10.56
2018-09-24T04:42:14.813Z,10.56
2018-09-24T04:43:14.787Z,10.5
2018-09-24T04:44:14.562Z,10.5
2018-09-24T04:45:14.496Z,10.5
2018-09-24T04:46:14.350Z,10.5
2018-09-24T04:47:14.351Z,10.5
2018-09-24T04:48:14.328Z,10.56
2018-09-24T04:49:15.034Z,10.44
2018-09-24T04:50:14.340Z,10.5
2018-09-24T04:51:14.527Z,10.5
2018-09-24T04:52:14.493Z,10.5
2018-09-24T04:53:14.523Z,10.5
2018-09-24T04:54:14.485Z,10.5
2018-09-24T04:55:14.517Z,10.5
2018-09-24T04:56:14.494Z,10.44
2018-09-24T04:57:14.568Z,10.44
2018-09-24T04:58:14.534Z,10.44
2018-09-24T04:59:14.559Z,10.38
2018-09-24T05:00:14.557Z,10.38
2018-09-24T05:01:14.459Z,10.38
2018-09-24T05:02:14.491Z,10.38
2018-09-24T05:03:14.685Z,10.38
2018-09-24T05:04:14.910Z,10.38
2018-09-24T05:05:14.462Z,10.31
2018-09-24T05:06:14.538Z,10.31
2018-09-24T05:07:14.329Z,10.31
2018-09-24T05:08:14.483Z,10.31
2018-09-24T05:09:14.483Z,10.31
2018-09-24T05:10:14.964Z,10.31
2018-09-24T05:11:14.353Z,10.31
2018-09-24T05:12:14.327Z,10.25
2018-09-24T05:13:14.553Z,10.31
2018-09-24T05:14:14.552Z,10.25
2018-09-24T05:15:14.530Z,10.31
2018-09-24T05:16:15.243Z,10.31
2018-09-24T05:17:14.459Z,10.31
2018-09-24T05:18:14.519Z,10.25
2018-09-24T05:19:14.523Z,10.25
2018-09-24T05:20:15.411Z,10.31
2018-09-24T05:21:14.360Z,10.25
2018-09-24T05:22:14.473Z,10.31
2018-09-24T05:23:14.581Z,10.25
2018-09-24T05:24:14.389Z,10.31
2018-09-24T05:25:14.528Z,10.25
2018-09-24T05:26:14.358Z,10.25
2018-09-24T05:27:14.580Z,10.25
2018-09-24T05:28:14.655Z,10.19
2018-09-24T05:29:14.585Z,10.19
2018-09-24T05:30:14.462Z,10.19
2018-09-24T05:31:14.449Z,10.19
2018-09-24T05:32:15.139Z,10.13
2018-09-24T05:33:14.559Z,10.13
2018-09-24T05:34:14.885Z,10.13
2018-09-24T05:35:14.295Z,10.13
2018-09-24T05:36:14.295Z,10.13
2018-09-24T05:37:14.821Z,10.13
2018-09-24T05:38:14.280Z,10.13
2018-09-24T05:39:14.424Z,10.13
2018-09-24T05:40:14.398Z,10.13
2018-09-24T05:41:15.151Z,10.13
2018-09-24T05:42:14.469Z,10.13
2018-09-24T05:43:14.312Z,10.06
2018-09-24T05:44:14.376Z,10.06
2018-09-24T05:45:14.291Z,10.06
2018-09-24T05:46:14.801Z,10
2018-09-24T05:47:14.445Z,10
2018-09-24T05:48:14.247Z,10
2018-09-24T05:49:14.458Z,10
2018-09-24T05:50:14.522Z,10
2018-09-24T05:51:14.359Z,10
2018-09-24T05:52:14.400Z,10
2018-09-24T05:53:14.739Z,10
2018-09-24T05:54:14.886Z,10
2018-09-24T05:55:14.416Z,9.94
2018-09-24T05:56:14.546Z,9.94
2018-09-24T05:57:14.225Z,9.94
2018-09-24T05:58:14.812Z,9.88
2018-09-24T05:59:14.455Z,9.88
2018-09-24T06:00:14.466Z,9.88
2018-09-24T06:01:14.220Z,9.88
2018-09-24T06:02:14.506Z,9.88
2018-09-24T06:03:14.282Z,9.88
2018-09-24T06:04:14.215Z,9.88
2018-09-24T06:05:14.384Z,9.88
2018-09-24T06:06:14.241Z,9.88
2018-09-24T06:07:14.192Z,9.88
2018-09-24T06:08:14.446Z,9.88
2018-09-24T06:09:14.417Z,9.94
2018-09-24T06:10:14.353Z,9.88
2018-09-24T06:11:14.195Z,9.94
2018-09-24T06:12:14.278Z,9.94
2018-09-24T06:13:14.320Z,9.94
2018-09-24T06:14:14.341Z,10
2018-09-24T06:15:14.201Z,10
2018-09-24T06:16:14.238Z,10
2018-09-24T06:17:14.406Z,10.06
2018-09-24T06:18:14.358Z,10.06
2018-09-24T06:19:14.365Z,10.06
2018-09-24T06:20:14.358Z,10.13
2018-09-24T06:21:14.332Z,10.19
2018-09-24T06:22:14.383Z,10.13
2018-09-24T06:23:14.360Z,10.19
2018-09-24T06:24:14.284Z,10.19
2018-09-24T06:25:14.656Z,10.25
2018-09-24T06:26:14.413Z,10.25
2018-09-24T06:27:14.389Z,10.31
2018-09-24T06:28:14.670Z,10.31
2018-09-24T06:29:14.370Z,10.31
2018-09-24T06:30:14.367Z,10.31
2018-09-24T06:31:14.455Z,10.38
2018-09-24T06:32:14.300Z,10.38
2018-09-24T06:33:14.347Z,10.38
2018-09-24T06:34:14.771Z,10.44
2018-09-24T06:35:14.373Z,10.38
2018-09-24T06:36:14.209Z,10.44
2018-09-24T06:37:14.331Z,10.5
2018-09-24T06:38:14.364Z,10.5
2018-09-24T06:39:14.533Z,10.5
2018-09-24T06:40:14.374Z,10.5
2018-09-24T06:41:14.855Z,10.5
2018-09-24T06:42:14.297Z,10.5
2018-09-24T06:43:14.330Z,10.56
2018-09-24T06:44:14.481Z,10.56
2018-09-24T06:45:14.385Z,10.56
2018-09-24T06:46:14.310Z,10.63
2018-09-24T06:47:14.386Z,10.63
2018-09-24T06:48:14.422Z,10.63
2018-09-24T06:49:14.321Z,10.69
2018-09-24T06:50:14.338Z,10.69
2018-09-24T06:51:14.316Z,10.75
2018-09-24T06:52:14.322Z,10.75
2018-09-24T06:53:14.354Z,10.81
2018-09-24T06:54:14.367Z,10.88
2018-09-24T06:55:14.443Z,10.81
2018-09-24T06:56:14.423Z,10.81
2018-09-24T06:57:14.287Z,10.88
2018-09-24T06:58:14.219Z,10.88
2018-09-24T06:59:14.193Z,10.88
2018-09-24T07:00:14.314Z,10.81
2018-09-24T07:01:14.491Z,10.81
2018-09-24T07:02:14.236Z,10.81
2018-09-24T07:03:14.236Z,10.88
2018-09-24T07:04:14.338Z,10.88
2018-09-24T07:05:14.423Z,10.88
2018-09-24T07:06:14.317Z,10.88
2018-09-24T07:07:14.370Z,10.81
2018-09-24T07:08:14.422Z,10.81
2018-09-24T07:09:14.312Z,10.81
2018-09-24T07:10:14.283Z,10.88
2018-09-24T07:11:14.566Z,10.88
2018-09-24T07:12:14.366Z,10.94
2018-09-24T07:13:16.813Z,10.88
2018-09-24T07:14:14.656Z,10.94
2018-09-24T07:15:14.287Z,10.94
2018-09-24T07:16:14.450Z,10.94
2018-09-24T07:17:14.294Z,11
2018-09-24T07:18:14.303Z,11
2018-09-24T07:19:14.341Z,11
2018-09-24T07:20:14.456Z,11.06
2018-09-24T07:21:14.242Z,11.06
2018-09-24T07:22:14.437Z,11.06
2018-09-24T07:23:14.275Z,11.12
2018-09-24T07:24:14.207Z,11.19
2018-09-24T07:25:14.447Z,11.19
2018-09-24T07:26:14.176Z,11.19
2018-09-24T07:27:14.352Z,11.19
2018-09-24T07:28:14.698Z,11.25
2018-09-24T07:29:14.347Z,11.25
2018-09-24T07:30:14.299Z,11.25
2018-09-24T07:31:14.257Z,11.31
2018-09-24T07:32:14.299Z,11.25
2018-09-24T07:33:15.109Z,11.38
2018-09-24T07:34:14.239Z,11.38
2018-09-24T07:35:14.380Z,11.38
2018-09-24T07:36:14.138Z,11.38
2018-09-24T07:37:14.247Z,11.44
2018-09-24T07:38:14.123Z,11.44
2018-09-24T07:39:14.283Z,11.44
2018-09-24T07:40:14.346Z,11.5
2018-09-24T07:41:14.234Z,11.5
2018-09-24T07:42:14.250Z,11.56
2018-09-24T07:43:15.306Z,11.5
2018-09-24T07:44:14.286Z,11.5
2018-09-24T07:45:14.110Z,11.5
2018-09-24T07:46:14.239Z,11.56
2018-09-24T07:47:14.280Z,11.56
2018-09-24T07:48:14.130Z,11.56
2018-09-24T07:49:14.277Z,11.63
2018-09-24T07:50:14.177Z,11.63
2018-09-24T07:51:14.286Z,11.69
2018-09-24T07:52:14.172Z,11.63
2018-09-24T07:53:14.291Z,11.69
2018-09-24T07:54:14.296Z,11.75
2018-09-24T07:55:14.384Z,11.75
2018-09-24T07:56:14.368Z,11.75
2018-09-24T07:57:14.239Z,11.75
2018-09-24T07:58:14.322Z,11.81
2018-09-24T07:59:14.241Z,11.81
2018-09-24T08:00:14.151Z,11.88
2018-09-24T08:01:14.140Z,11.81
2018-09-24T08:02:14.281Z,11.88
2018-09-24T08:03:14.052Z,11.88
2018-09-24T08:04:14.177Z,11.88
2018-09-24T08:05:14.213Z,11.88
2018-09-24T08:06:14.432Z,11.88
2018-09-24T08:07:15.052Z,11.81
2018-09-24T08:08:14.345Z,11.81
2018-09-24T08:09:14.170Z,11.81
2018-09-24T08:10:14.373Z,11.81
2018-09-24T08:11:14.448Z,11.81
2018-09-24T08:12:14.663Z,11.88
2018-09-24T08:13:14.863Z,11.88
2018-09-24T08:14:14.675Z,11.94
2018-09-24T08:15:14.039Z,11.94
2018-09-24T08:16:14.474Z,11.94
2018-09-24T08:17:14.150Z,11.94
2018-09-24T08:18:14.845Z,12
2018-09-24T08:19:14.219Z,12
2018-09-24T08:20:14.214Z,12.06
2018-09-24T08:21:14.553Z,12.06
2018-09-24T08:22:14.119Z,12.06
2018-09-24T08:23:14.271Z,12.06
2018-09-24T08:24:14.320Z,12
2018-09-24T08:25:14.171Z,12
2018-09-24T08:26:14.618Z,12
2018-09-24T08:27:14.304Z,12
2018-09-24T08:28:14.145Z,12
2018-09-24T08:29:14.188Z,12
2018-09-24T08:30:14.216Z,12.13
2018-09-24T08:31:14.183Z,12.13
2018-09-24T08:32:14.228Z,12.19
2018-09-24T08:33:14.245Z,12.25
2018-09-24T08:34:14.212Z,12.25
2018-09-24T08:35:14.076Z,12.31
2018-09-24T08:36:14.662Z,12.31
2018-09-24T08:37:14.053Z,12.44
2018-09-24T08:38:14.665Z,12.44
2018-09-24T08:39:14.257Z,12.44
2018-09-24T08:40:14.187Z,12.44
2018-09-24T08:41:14.315Z,12.56
2018-09-24T08:42:14.159Z,12.5
2018-09-24T08:43:14.206Z,12.56
2018-09-24T08:44:15.337Z,12.63
2018-09-24T08:45:14.363Z,12.56
2018-09-24T08:46:14.174Z,12.63
2018-09-24T08:47:14.364Z,12.56
2018-09-24T08:48:14.187Z,12.56
2018-09-24T08:49:14.342Z,12.63
2018-09-24T08:50:14.209Z,12.63
2018-09-24T08:51:14.186Z,12.63
2018-09-24T08:52:14.217Z,12.69
2018-09-24T08:53:14.398Z,12.69
2018-09-24T08:54:14.039Z,12.75
2018-09-24T08:55:14.187Z,12.75
2018-09-24T08:56:14.194Z,12.75
2018-09-24T08:57:14.951Z,12.75
2018-09-24T08:58:13.966Z,12.69
2018-09-24T08:59:14.159Z,12.75
2018-09-24T09:00:14.068Z,12.75
2018-09-24T09:01:14.133Z,12.75
2018-09-24T09:02:14.243Z,12.75
2018-09-24T09:03:14.148Z,12.69
2018-09-24T09:04:14.347Z,12.69
2018-09-24T09:05:14.122Z,12.69
2018-09-24T09:06:14.140Z,12.69
2018-09-24T09:07:14.318Z,12.75
2018-09-24T09:08:14.535Z,12.69
2018-09-24T09:09:14.171Z,12.69
2018-09-24T09:10:14.228Z,12.69
2018-09-24T09:11:14.195Z,12.75
2018-09-24T09:12:14.127Z,12.69
2018-09-24T09:13:14.216Z,12.69
2018-09-24T09:14:14.097Z,12.69
2018-09-24T09:15:13.999Z,12.63
2018-09-24T09:16:14.462Z,12.63
2018-09-24T09:17:13.930Z,12.63
2018-09-24T09:18:14.272Z,12.63
2018-09-24T09:19:14.270Z,12.63
2018-09-24T09:20:14.291Z,12.63
2018-09-24T09:21:14.175Z,12.63
2018-09-24T09:22:14.213Z,12.63
2018-09-24T09:23:14.104Z,12.63
2018-09-24T09:24:14.072Z,12.63
2018-09-24T09:25:14.153Z,12.69
2018-09-24T09:26:14.383Z,12.63
2018-09-24T09:27:13.956Z,12.69
2018-09-24T09:28:14.165Z,12.69
2018-09-24T09:29:14.622Z,12.69
2018-09-24T09:30:13.954Z,12.75
2018-09-24T09:31:14.094Z,12.75
2018-09-24T09:32:14.169Z,12.75
2018-09-24T09:33:14.201Z,12.81
2018-09-24T09:34:14.123Z,12.81
2018-09-24T09:35:14.721Z,12.88
2018-09-24T09:36:14.189Z,12.88
2018-09-24T09:37:14.196Z,12.94
2018-09-24T09:38:14.232Z,13.06
2018-09-24T09:39:13.926Z,13.19
2018-09-24T09:40:14.084Z,13.19
2018-09-24T09:41:15.041Z,13.38
2018-09-24T09:42:14.160Z,13.31
2018-09-24T09:43:14.168Z,13.31
2018-09-24T09:44:14.105Z,13.38
2018-09-24T09:45:14.216Z,13.31
2018-09-24T09:46:14.118Z,13.38
2018-09-24T09:47:14.101Z,13.38
2018-09-24T09:48:14.260Z,13.44
2018-09-24T09:49:13.948Z,13.44
2018-09-24T09:50:14.213Z,13.44
2018-09-24T09:51:14.357Z,13.44
2018-09-24T09:52:13.935Z,13.5
2018-09-24T09:53:14.108Z,13.44
2018-09-24T09:54:13.940Z,13.5
2018-09-24T09:55:14.138Z,13.62
2018-09-24T09:56:14.229Z,13.62
2018-09-24T09:57:14.123Z,13.62
2018-09-24T09:58:14.205Z,13.62
2018-09-24T09:59:14.883Z,13.69
2018-09-24T10:00:13.976Z,13.69
2018-09-24T10:01:13.980Z,13.75
2018-09-24T10:02:14.254Z,13.88
2018-09-24T10:03:14.243Z,13.88
2018-09-24T10:04:14.021Z,13.94
2018-09-24T10:05:13.915Z,13.88
2018-09-24T10:06:13.953Z,13.75
2018-09-24T10:07:14.407Z,13.75
2018-09-24T10:08:13.873Z,13.75
2018-09-24T10:09:14.253Z,13.81
2018-09-24T10:10:14.174Z,13.88
2018-09-24T10:11:14.907Z,13.81
2018-09-24T10:12:14.166Z,13.81
2018-09-24T10:13:13.861Z,13.75
2018-09-24T10:14:14.206Z,13.75
2018-09-24T10:15:14.143Z,13.69
2018-09-24T10:16:13.950Z,13.69
2018-09-24T10:17:14.075Z,13.69
2018-09-24T10:18:13.889Z,13.62
2018-09-24T10:19:14.118Z,13.56
2018-09-24T10:20:14.021Z,13.56
2018-09-24T10:21:14.048Z,13.5
2018-09-24T10:22:14.210Z,13.5
2018-09-24T10:23:14.124Z,13.5
2018-09-24T10:24:14.356Z,13.5
2018-09-24T10:25:14.053Z,13.5
2018-09-24T10:26:14.264Z,13.56
2018-09-24T10:27:13.848Z,13.56
2018-09-24T10:28:14.123Z,13.62
2018-09-24T10:29:21.209Z,13.62
2018-09-24T10:30:14.319Z,13.69
2018-09-24T10:31:13.913Z,13.69
2018-09-24T10:32:15.630Z,13.62
2018-09-24T10:33:14.006Z,13.69
2018-09-24T10:34:15.504Z,13.62
2018-09-24T10:35:15.731Z,13.69
2018-09-24T10:36:13.847Z,13.69
2018-09-24T10:37:15.359Z,13.69
2018-09-24T10:38:14.138Z,13.69
2018-09-24T10:39:13.835Z,13.62
2018-09-24T10:40:13.877Z,13.69
2018-09-24T10:41:13.849Z,13.69
2018-09-24T10:42:13.794Z,13.75
2018-09-24T10:43:13.954Z,13.75
2018-09-24T10:44:13.854Z,13.81
2018-09-24T10:45:13.890Z,13.88
2018-09-24T10:46:14.164Z,13.94
2018-09-24T10:47:13.823Z,14
2018-09-24T10:48:14.003Z,14.13
2018-09-24T10:49:13.813Z,14.13
2018-09-24T10:50:14.230Z,14.19
2018-09-24T10:51:14.207Z,14.19
2018-09-24T10:52:13.966Z,14.25
2018-09-24T10:53:14.075Z,14.19
2018-09-24T10:54:13.911Z,14.31
2018-09-24T10:55:14.000Z,14.31
2018-09-24T10:56:13.955Z,14.44
2018-09-24T10:57:14.023Z,14.5
2018-09-24T10:58:13.942Z,14.44
2018-09-24T10:59:14.169Z,14.5
2018-09-24T11:00:14.087Z,14.56
2018-09-24T11:01:14.439Z,14.63
2018-09-24T11:02:13.967Z,14.63
2018-09-24T11:03:14.285Z,14.63
2018-09-24T11:04:13.977Z,14.63
2018-09-24T11:05:13.871Z,14.56
2018-09-24T11:06:14.319Z,14.63
2018-09-24T11:07:13.963Z,14.56
2018-09-24T11:08:13.903Z,14.56
2018-09-24T11:09:13.976Z,14.5
2018-09-24T11:10:14.919Z,14.44
2018-09-24T11:11:13.974Z,14.44
2018-09-24T11:12:13.792Z,14.5
2018-09-24T11:13:13.964Z,14.56
2018-09-24T11:14:14.149Z,14.63
2018-09-24T11:15:14.175Z,14.69
2018-09-24T11:16:16.334Z,14.75
2018-09-24T11:17:17.874Z,14.75
2018-09-24T11:18:14.286Z,14.81
2018-09-24T11:19:13.989Z,14.94
2018-09-24T11:20:13.894Z,15.13
2018-09-24T11:21:14.134Z,15.06
2018-09-24T11:22:14.179Z,15.13
2018-09-24T11:23:13.902Z,15.06
2018-09-24T11:24:14.221Z,15
2018-09-24T11:25:14.224Z,14.94
2018-09-24T11:27:13.918Z,14.87
2018-09-24T11:28:14.352Z,14.87
2018-09-24T11:29:14.297Z,14.81
2018-09-24T11:30:14.265Z,14.81
2018-09-24T11:31:13.946Z,14.81
2018-09-24T11:32:14.375Z,14.87
2018-09-24T11:33:14.170Z,14.94
2018-09-24T11:34:14.490Z,15.06
2018-09-24T11:35:13.992Z,15.13
2018-09-24T11:36:14.139Z,15.25
2018-09-24T11:37:13.725Z,15.38
2018-09-24T11:38:14.031Z,15.44
2018-09-24T11:39:14.253Z,15.38
2018-09-24T11:40:14.119Z,15.31
2018-09-24T11:41:14.018Z,15.38
2018-09-24T11:42:14.322Z,15.31
2018-09-24T11:43:14.254Z,15.19
2018-09-24T11:44:14.047Z,15.13
2018-09-24T11:45:14.041Z,15.06
2018-09-24T11:46:14.077Z,15.13
2018-09-24T11:47:14.609Z,15.06
2018-09-24T11:48:14.384Z,15.06
2018-09-24T11:49:14.100Z,15
2018-09-24T11:50:13.912Z,14.94
2018-09-24T11:51:14.097Z,15
2018-09-24T11:52:14.109Z,15
2018-09-24T11:53:13.905Z,15.06
2018-09-24T11:54:14.018Z,15.13
2018-09-24T11:55:13.923Z,15.19
2018-09-24T11:56:14.452Z,15.25
2018-09-24T11:57:14.285Z,15.31
2018-09-24T11:58:13.929Z,15.31
2018-09-24T11:59:13.988Z,15.31
2018-09-24T12:00:13.996Z,15.38
2018-09-24T12:01:13.975Z,15.38
2018-09-24T12:02:14.228Z,15.38
2018-09-24T12:03:14.282Z,15.44
2018-09-24T12:04:13.889Z,15.44
2018-09-24T12:05:13.981Z,15.44
2018-09-24T12:06:14.221Z,15.44
2018-09-24T12:07:13.903Z,15.38
2018-09-24T12:08:14.042Z,15.44
2018-09-24T12:09:14.011Z,15.44
2018-09-24T12:10:14.548Z,15.44
2018-09-24T12:11:16.924Z,15.5
2018-09-24T12:12:14.043Z,15.5
2018-09-24T12:13:14.036Z,15.5
2018-09-24T12:14:14.058Z,15.5
2018-09-24T12:16:13.733Z,15.5
2018-09-24T12:17:14.013Z,15.5
2018-09-24T12:18:14.103Z,15.5
2018-09-24T12:19:14.010Z,15.5
2018-09-24T12:20:14.073Z,15.5
2018-09-24T12:21:13.919Z,15.5
2018-09-24T12:22:13.695Z,15.5
2018-09-24T12:23:14.855Z,15.44
2018-09-24T12:24:14.540Z,15.5
2018-09-24T12:25:14.060Z,15.44
2018-09-24T12:26:15.272Z,15.44
2018-09-24T12:27:14.398Z,15.56
2018-09-24T12:28:14.414Z,15.56
2018-09-24T12:29:15.081Z,15.63
2018-09-24T12:30:13.877Z,15.63
2018-09-24T12:31:13.980Z,15.56
2018-09-24T12:32:13.890Z,15.69
2018-09-24T12:33:13.864Z,15.69
2018-09-24T12:34:13.994Z,15.69
2018-09-24T12:35:14.073Z,15.63
2018-09-24T12:36:14.023Z,15.69
2018-09-24T12:37:13.909Z,15.69
2018-09-24T12:38:14.139Z,15.81
2018-09-24T12:39:14.361Z,15.81
2018-09-24T12:40:13.956Z,15.81
2018-09-24T12:41:13.931Z,15.81
2018-09-24T12:42:13.927Z,15.88
2018-09-24T12:43:14.037Z,15.88
2018-09-24T12:44:14.045Z,15.88
2018-09-24T12:45:13.859Z,15.81
2018-09-24T12:46:13.973Z,15.88
2018-09-24T12:47:13.756Z,15.88
2018-09-24T12:48:14.381Z,15.88
2018-09-24T12:49:13.900Z,15.88
2018-09-24T12:50:13.819Z,15.94
2018-09-24T12:51:14.012Z,15.88
2018-09-24T12:52:14.039Z,15.94
2018-09-24T12:53:14.118Z,15.94
2018-09-24T12:54:14.373Z,16
2018-09-24T12:55:13.961Z,16
2018-09-24T12:56:13.987Z,16
2018-09-24T12:57:13.868Z,16
2018-09-24T12:58:14.079Z,16.06
2018-09-24T12:59:14.099Z,16
2018-09-24T13:00:13.983Z,16
2018-09-24T13:01:13.759Z,16.06
2018-09-24T13:02:13.964Z,16